createdAt,value
2019-02-16T00:01:04.196Z,95.74
2019-02-16T00:03:31.277Z,95.78
2019-02-16T00:05:58.324Z,96.21
2019-02-16T00:08:25.456Z,96.38
2019-02-16T00:10:52.512Z,96.15
2019-02-16T00:13:19.608Z,96.17
2019-02-16T00:16:05.267Z,96.15
2019-02-16T00:18:32.433Z,96.07
2019-02-16T00:21:04.070Z,96.33
2019-02-16T00:23:29.697Z,96.24
2019-02-16T00:25:56.792Z,96.07
2019-02-16T00:28:23.865Z,96.00
2019-02-16T00:30:50.983Z,96.41
2019-02-16T00:33:18.034Z,96.06
2019-02-16T00:35:45.085Z,95.92
2019-02-16T00:38:12.190Z,95.96
2019-02-16T00:40:39.329Z,96.20
2019-02-16T00:43:07.530Z,96.61
2019-02-16T00:45:34.749Z,96.83
2019-02-16T00:48:01.948Z,97.03
2019-02-16T00:50:29.040Z,97.07
2019-02-16T00:52:56.146Z,97.16
2019-02-16T00:55:23.215Z,97.36
2019-02-16T00:57:50.391Z,97.74
2019-02-16T01:00:17.486Z,97.84
2019-02-16T01:02:44.565Z,98.08
2019-02-16T01:06:07.515Z,98.52
2019-02-16T01:08:35.701Z,98.84
2019-02-16T01:11:02.903Z,99.15
2019-02-16T01:13:30.182Z,99.37
2019-02-16T01:15:57.246Z,99.44
2019-02-16T01:18:24.319Z,99.23
2019-02-16T01:20:51.438Z,98.98
2019-02-16T01:23:18.638Z,98.81
2019-02-16T01:25:45.820Z,99.06
2019-02-16T01:28:12.934Z,99.12
2019-02-16T01:30:40.174Z,99.21
2019-02-16T01:33:07.240Z,99.47
2019-02-16T01:35:34.448Z,99.59
2019-02-16T01:38:01.592Z,99.57
2019-02-16T01:40:28.822Z,99.47
2019-02-16T01:42:55.977Z,99.24
2019-02-16T01:45:23.074Z,98.81
2019-02-16T01:47:50.131Z,98.56
2019-02-16T01:50:17.320Z,98.61
2019-02-16T01:52:44.390Z,98.78
2019-02-16T01:55:12.505Z,98.95
2019-02-16T01:57:39.586Z,99.24
2019-02-16T02:00:08.268Z,99.67
2019-02-16T02:02:35.542Z,99.97
2019-02-16T02:05:03.827Z,100.00
2019-02-16T02:07:30.905Z,100.00
2019-02-16T02:09:58.064Z,100.00
2019-02-16T02:12:25.458Z,100.00
2019-02-16T02:14:52.556Z,100.00
2019-02-16T02:17:19.760Z,100.00
2019-02-16T02:19:46.851Z,100.00
2019-02-16T02:22:13.931Z,100.00
2019-02-16T02:24:41.057Z,100.00
2019-02-16T02:27:08.235Z,100.00
2019-02-16T02:29:35.318Z,100.00
2019-02-16T02:32:02.549Z,100.00
2019-02-16T02:34:29.633Z,100.00
2019-02-16T02:36:56.746Z,100.00
2019-02-16T02:39:24.264Z,100.00
2019-02-16T02:41:53.781Z,100.00
2019-02-16T02:44:20.854Z,100.00
2019-02-16T02:47:08.881Z,100.00
2019-02-16T02:49:35.994Z,100.00
2019-02-16T02:52:03.059Z,100.00
2019-02-16T02:54:30.182Z,100.00
2019-02-16T02:56:57.275Z,100.00
2019-02-16T02:59:24.360Z,100.00
2019-02-16T03:02:46.870Z,100.00
2019-02-16T03:05:13.971Z,100.00
2019-02-16T03:07:41.043Z,100.00
2019-02-16T03:10:08.313Z,100.00
2019-02-16T03:12:37.406Z,100.00
2019-02-16T03:15:04.851Z,100.00
2019-02-16T03:17:32.002Z,100.00
2019-02-16T03:19:59.096Z,100.00
2019-02-16T03:26:10.660Z,100.00
2019-02-16T03:28:42.166Z,100.00
2019-02-16T03:31:53.570Z,100.00
2019-02-16T03:34:25.308Z,100.00
2019-02-16T03:37:46.447Z,100.00
2019-02-16T03:40:13.939Z,100.00
2019-02-16T03:42:41.027Z,100.00
2019-02-16T03:45:08.294Z,100.00
2019-02-16T03:47:35.416Z,100.00
2019-02-16T03:50:04.686Z,100.00
2019-02-16T03:52:31.766Z,100.00
2019-02-16T03:54:58.869Z,100.00
2019-02-16T03:57:26.131Z,100.00
2019-02-16T03:59:53.292Z,100.00
2019-02-16T04:02:20.381Z,100.00
2019-02-16T04:04:47.465Z,100.00
2019-02-16T04:07:14.602Z,100.00
2019-02-16T04:09:41.707Z,100.00
2019-02-16T04:12:08.797Z,100.00
2019-02-16T04:14:35.920Z,100.00
2019-02-16T04:17:03.528Z,100.00
2019-02-16T04:20:35.138Z,100.00
2019-02-16T04:23:02.371Z,100.00
2019-02-16T04:25:29.436Z,100.00
2019-02-16T04:27:56.492Z,100.00
2019-02-16T04:30:23.577Z,100.00
2019-02-16T04:32:50.680Z,100.00
2019-02-16T04:35:54.165Z,100.00
2019-02-16T04:38:21.375Z,100.00
2019-02-16T04:40:48.443Z,100.00
2019-02-16T04:43:15.524Z,100.00
2019-02-16T04:45:42.717Z,100.00
2019-02-16T04:48:09.759Z,100.00
2019-02-16T04:50:36.879Z,100.00
2019-02-16T04:53:04.379Z,100.00
2019-02-16T04:55:31.522Z,100.00
2019-02-16T04:57:58.575Z,100.00
2019-02-16T05:00:25.649Z,100.00
2019-02-16T05:02:52.698Z,100.00
2019-02-16T05:05:19.782Z,100.00
2019-02-16T05:07:52.999Z,100.00
2019-02-16T05:10:21.870Z,100.00
2019-02-16T05:12:48.959Z,100.00
2019-02-16T05:15:16.000Z,100.00
2019-02-16T05:17:43.080Z,100.00
2019-02-16T05:20:10.197Z,100.00
2019-02-16T05:22:44.386Z,100.00
2019-02-16T05:25:06.216Z,100.00
2019-02-16T05:27:33.305Z,100.00
2019-02-16T05:30:00.370Z,100.00
2019-02-16T05:32:27.417Z,100.00
2019-02-16T05:34:55.450Z,100.00
2019-02-16T05:37:22.619Z,100.00
2019-02-16T05:39:49.706Z,100.00
2019-02-16T05:42:16.805Z,100.00
2019-02-16T05:44:43.893Z,100.00
2019-02-16T05:47:10.942Z,100.00
2019-02-16T05:49:38.056Z,100.00
2019-02-16T05:52:05.105Z,100.00
2019-02-16T05:54:32.174Z,100.00
2019-02-16T05:56:59.276Z,100.00
2019-02-16T05:59:26.351Z,100.00
2019-02-16T06:01:54.358Z,100.00
2019-02-16T06:04:21.666Z,100.00
2019-02-16T06:06:48.774Z,100.00
2019-02-16T06:09:15.854Z,100.00
2019-02-16T06:11:44.270Z,100.00
2019-02-16T06:14:11.347Z,100.00
2019-02-16T06:16:38.399Z,100.00
2019-02-16T06:19:05.558Z,100.00
2019-02-16T06:21:32.840Z,100.00
2019-02-16T06:23:59.896Z,100.00
2019-02-16T06:26:26.963Z,100.00
2019-02-16T06:28:55.233Z,100.00
2019-02-16T06:31:22.312Z,100.00
2019-02-16T06:33:49.519Z,100.00
2019-02-16T06:36:37.628Z,100.00
2019-02-16T06:39:05.251Z,100.00
2019-02-16T06:41:32.371Z,100.00
2019-02-16T06:43:59.438Z,100.00
2019-02-16T06:46:26.597Z,100.00
2019-02-16T06:48:53.643Z,100.00
2019-02-16T06:51:22.023Z,100.00
2019-02-16T06:53:49.131Z,100.00
2019-02-16T06:56:48.091Z,100.00
2019-02-16T06:59:15.191Z,100.00
2019-02-16T07:01:42.252Z,100.00
2019-02-16T07:04:09.450Z,100.00
2019-02-16T07:06:36.594Z,100.00
2019-02-16T07:09:04.659Z,100.00
2019-02-16T07:11:31.720Z,100.00
2019-02-16T07:13:58.823Z,100.00
2019-02-16T07:16:57.785Z,100.00
2019-02-16T07:19:44.950Z,100.00
2019-02-16T07:22:12.011Z,100.00
2019-02-16T07:24:39.200Z,100.00
2019-02-16T07:27:06.270Z,100.00
2019-02-16T07:29:33.321Z,100.00
2019-02-16T07:32:00.362Z,100.00
2019-02-16T07:34:27.459Z,100.00
2019-02-16T07:37:33.595Z,100.00
2019-02-16T07:40:00.695Z,100.00
2019-02-16T07:42:29.889Z,100.00
2019-02-16T07:45:19.184Z,100.00
2019-02-16T07:48:04.056Z,100.00
2019-02-16T07:50:42.849Z,100.00
2019-02-16T07:53:21.608Z,100.00
2019-02-16T07:56:02.608Z,100.00
2019-02-16T07:58:52.076Z,100.00
2019-02-16T08:01:47.813Z,100.00
2019-02-16T08:04:34.437Z,100.00
2019-02-16T08:07:18.260Z,100.00
2019-02-16T08:10:07.727Z,100.00
2019-02-16T08:13:00.670Z,100.00
2019-02-16T08:15:58.472Z,100.00
2019-02-16T08:18:57.570Z,100.00
2019-02-16T08:21:53.360Z,100.00
2019-02-16T08:24:45.896Z,100.00
2019-02-16T08:27:36.787Z,100.00
2019-02-16T08:30:26.694Z,100.00
2019-02-16T08:33:06.679Z,100.00
2019-02-16T08:35:53.342Z,100.00
2019-02-16T08:38:46.244Z,100.00
2019-02-16T08:41:28.548Z,100.00
2019-02-16T08:44:15.288Z,100.00
2019-02-16T08:47:05.096Z,100.00
2019-02-16T08:49:44.711Z,100.00
2019-02-16T08:52:37.261Z,100.00
2019-02-16T08:55:23.024Z,100.00
2019-02-16T08:58:24.992Z,100.00
2019-02-16T09:01:27.548Z,100.00
2019-02-16T09:04:23.291Z,100.00
2019-02-16T09:07:09.952Z,100.00
2019-02-16T09:09:49.285Z,100.00
2019-02-16T09:12:38.675Z,100.00
2019-02-16T09:15:37.764Z,100.00
2019-02-16T09:18:18.427Z,100.00
2019-02-16T09:21:14.528Z,100.00
2019-02-16T09:23:58.835Z,100.00
2019-02-16T09:26:41.099Z,96.52
2019-02-16T09:29:19.675Z,96.23
2019-02-16T09:32:10.433Z,93.33
2019-02-16T09:35:09.015Z,91.06
2019-02-16T09:37:52.314Z,90.81
2019-02-16T09:40:39.059Z,89.92
2019-02-16T09:43:35.126Z,88.43
2019-02-16T09:46:20.496Z,87.57
2019-02-16T09:49:19.494Z,87.33
2019-02-16T09:52:06.564Z,86.42
2019-02-16T09:55:05.577Z,85.20
2019-02-16T09:57:58.120Z,81.91
2019-02-16T10:00:40.280Z,81.36
2019-02-16T10:03:13.099Z,82.54
2019-02-16T10:05:54.210Z,81.43
2019-02-16T10:08:39.734Z,80.79
2019-02-16T10:11:18.478Z,80.29
2019-02-16T10:14:03.962Z,79.48
2019-02-16T10:16:49.181Z,79.34
2019-02-16T10:19:48.034Z,79.52
2019-02-16T10:22:46.827Z,78.51
2019-02-16T10:25:39.366Z,78.96
2019-02-16T10:28:31.780Z,78.50
2019-02-16T10:31:07.871Z,77.58
2019-02-16T10:33:53.028Z,77.27
2019-02-16T10:36:51.904Z,76.70
2019-02-16T10:39:37.062Z,77.40
2019-02-16T10:42:29.910Z,74.80
2019-02-16T10:45:15.261Z,75.31
2019-02-16T10:48:20.341Z,75.59
2019-02-16T10:51:09.963Z,75.69
2019-02-16T10:53:44.150Z,75.37
2019-02-16T10:56:23.000Z,75.09
2019-02-16T10:59:09.829Z,74.92
2019-02-16T11:01:47.724Z,74.08
2019-02-16T11:04:38.182Z,74.54
2019-02-16T11:07:37.184Z,74.85
2019-02-16T11:10:24.337Z,74.12
2019-02-16T11:13:06.648Z,74.49
2019-02-16T11:15:53.210Z,73.05
2019-02-16T11:18:45.931Z,71.88
2019-02-16T11:21:38.067Z,71.21
2019-02-16T11:24:36.126Z,72.37
2019-02-16T11:27:28.264Z,71.41
2019-02-16T11:30:18.226Z,70.81
2019-02-16T11:32:54.204Z,70.17
2019-02-16T11:35:43.630Z,71.38
2019-02-16T11:38:33.061Z,70.44
2019-02-16T11:41:19.756Z,70.45
2019-02-16T11:44:15.615Z,71.68
2019-02-16T11:47:17.507Z,72.71
2019-02-16T11:50:02.302Z,72.47
2019-02-16T11:53:01.103Z,70.57
2019-02-16T11:55:42.861Z,70.60
2019-02-16T11:58:21.130Z,67.70
2019-02-16T12:00:56.211Z,67.85
2019-02-16T12:03:45.873Z,67.96
2019-02-16T12:06:32.726Z,68.61
2019-02-16T12:09:41.568Z,66.90
2019-02-16T12:12:19.024Z,66.91
2019-02-16T12:15:08.827Z,66.18
2019-02-16T12:18:04.474Z,67.10
2019-02-16T12:20:50.551Z,66.59
2019-02-16T12:23:27.099Z,66.35
2019-02-16T12:26:28.907Z,65.61
2019-02-16T12:29:16.820Z,64.29
2019-02-16T12:32:12.576Z,63.15
2019-02-16T12:34:57.763Z,63.14
2019-02-16T12:37:40.869Z,63.25
2019-02-16T12:40:26.027Z,62.44
2019-02-16T12:43:22.324Z,61.77
2019-02-16T12:46:06.076Z,60.40
2019-02-16T12:49:04.821Z,60.47
2019-02-16T12:51:50.062Z,61.07
2019-02-16T12:54:45.797Z,59.02
2019-02-16T12:57:31.180Z,60.53
2019-02-16T13:00:04.676Z,60.36
2019-02-16T13:02:49.945Z,59.64
2019-02-16T13:05:43.167Z,58.74
2019-02-16T13:08:32.620Z,58.28
2019-02-16T13:11:22.195Z,57.04
2019-02-16T13:14:02.757Z,57.15
2019-02-16T13:16:43.521Z,57.74
2019-02-16T13:19:19.426Z,59.11
2019-02-16T13:22:00.582Z,58.44
2019-02-16T13:24:45.282Z,56.31
2019-02-16T13:27:28.432Z,56.63
2019-02-16T13:30:24.324Z,55.93
2019-02-16T13:33:11.008Z,55.37
2019-02-16T13:35:48.206Z,58.68
2019-02-16T13:38:37.877Z,57.03
2019-02-16T13:41:17.231Z,56.46
2019-02-16T13:44:03.936Z,57.09
2019-02-16T13:46:37.095Z,56.69
2019-02-16T13:49:10.305Z,56.74
2019-02-16T13:51:56.979Z,55.43
2019-02-16T13:54:43.670Z,56.70
2019-02-16T13:57:42.383Z,55.86
2019-02-16T14:00:37.953Z,56.56
2019-02-16T14:03:27.604Z,56.28
2019-02-16T14:06:20.353Z,55.62
2019-02-16T14:09:06.276Z,55.10
2019-02-16T14:11:58.929Z,55.41
2019-02-16T14:14:44.501Z,55.66
2019-02-16T14:17:36.690Z,54.37
2019-02-16T14:20:04.360Z,54.86
2019-02-16T14:22:31.432Z,54.29
2019-02-16T14:25:00.404Z,55.08
2019-02-16T14:27:27.451Z,54.49
2019-02-16T14:29:54.556Z,54.87
2019-02-16T14:32:21.613Z,55.34
2019-02-16T14:34:48.713Z,55.15
2019-02-16T14:37:40.466Z,54.81
2019-02-16T14:40:07.762Z,55.48
2019-02-16T14:42:34.868Z,56.22
2019-02-16T14:45:02.012Z,57.08
2019-02-16T14:47:29.166Z,57.64
2019-02-16T14:49:56.217Z,57.53
2019-02-16T14:52:23.301Z,56.55
2019-02-16T14:54:50.415Z,55.72
2019-02-16T14:57:17.423Z,54.82
2019-02-16T14:59:44.518Z,54.83
2019-02-16T15:02:11.660Z,55.06
2019-02-16T15:04:38.790Z,56.86
2019-02-16T15:07:05.902Z,55.95
2019-02-16T15:09:34.003Z,55.76
2019-02-16T15:12:01.373Z,55.90
2019-02-16T15:14:28.494Z,56.14
2019-02-16T15:16:55.976Z,55.86
2019-02-16T15:19:23.067Z,55.95
2019-02-16T15:21:50.274Z,56.54
2019-02-16T15:24:17.348Z,57.14
2019-02-16T15:26:46.695Z,56.77
2019-02-16T15:29:13.967Z,57.13
2019-02-16T15:31:41.007Z,57.21
2019-02-16T15:34:08.072Z,57.29
2019-02-16T15:36:35.408Z,57.59
2019-02-16T15:39:04.335Z,57.29
2019-02-16T15:41:31.522Z,57.91
2019-02-16T15:43:58.621Z,58.09
2019-02-16T15:46:25.698Z,58.30
2019-02-16T15:48:52.892Z,59.05
2019-02-16T15:51:19.978Z,59.50
2019-02-16T15:53:47.559Z,59.60
2019-02-16T15:56:14.692Z,60.79
2019-02-16T15:58:41.962Z,61.40
2019-02-16T16:01:09.223Z,61.91
2019-02-16T16:03:36.299Z,62.53
2019-02-16T16:06:03.381Z,62.47
2019-02-16T16:08:59.469Z,62.85
2019-02-16T16:11:36.521Z,63.32
2019-02-16T16:14:19.166Z,63.73
2019-02-16T16:16:57.647Z,63.89
2019-02-16T16:19:44.414Z,64.44
2019-02-16T16:22:30.915Z,64.86
2019-02-16T16:25:17.631Z,65.33
2019-02-16T16:28:02.947Z,65.75
2019-02-16T16:30:55.723Z,66.96
2019-02-16T16:33:51.274Z,68.20
2019-02-16T16:36:37.948Z,69.80
2019-02-16T16:39:18.266Z,71.18
2019-02-16T16:42:04.943Z,72.26
2019-02-16T16:48:00.860Z,74.16
2019-02-16T16:50:46.467Z,75.10
2019-02-16T16:53:33.215Z,75.96
2019-02-16T16:56:11.708Z,77.00
2019-02-16T16:58:58.378Z,77.91
2019-02-16T17:01:42.811Z,78.95
2019-02-16T17:04:35.280Z,80.24
2019-02-16T17:07:30.760Z,80.82
2019-02-16T17:10:26.341Z,81.60
2019-02-16T17:13:08.442Z,82.43
2019-02-16T17:16:04.182Z,83.31
2019-02-16T17:18:46.700Z,84.02
2019-02-16T17:21:33.311Z,85.43
2019-02-16T17:24:17.130Z,86.24
2019-02-16T17:26:52.937Z,88.31
2019-02-16T17:29:39.661Z,90.45
2019-02-16T17:32:38.740Z,91.48
2019-02-16T17:35:23.895Z,92.04
2019-02-16T17:38:07.847Z,91.98
2019-02-16T17:41:00.613Z,92.25
2019-02-16T17:43:47.406Z,92.50
2019-02-16T17:46:35.916Z,93.24
2019-02-16T17:52:50.866Z,93.68
2019-02-16T17:55:37.022Z,94.74
2019-02-16T17:58:11.241Z,95.81
2019-02-16T18:00:56.929Z,95.74
2019-02-16T18:03:55.943Z,96.25
2019-02-16T18:13:13.748Z,98.94
2019-02-16T18:16:06.331Z,99.45
2019-02-16T18:18:54.827Z,98.58
2019-02-16T18:21:46.452Z,99.01
2019-02-16T18:24:31.908Z,99.77
2019-02-16T18:27:18.642Z,100.00
2019-02-16T18:30:14.504Z,100.00
2019-02-16T18:32:59.105Z,100.00
2019-02-16T18:35:45.819Z,100.00
2019-02-16T18:38:19.617Z,100.00
2019-02-16T18:41:15.141Z,100.00
2019-02-16T18:44:14.189Z,100.00
2019-02-16T18:46:59.107Z,100.00
2019-02-16T18:50:10.305Z,100.00
2019-02-16T18:52:48.229Z,100.00
2019-02-16T18:56:10.758Z,100.00
2019-02-16T18:59:06.847Z,100.00
2019-02-16T19:02:29.110Z,100.00
2019-02-16T19:05:15.816Z,100.00
2019-02-16T19:07:56.802Z,100.00
2019-02-16T19:10:42.424Z,100.00
2019-02-16T19:13:40.546Z,100.00
2019-02-16T19:16:41.144Z,100.00
2019-02-16T19:19:34.077Z,100.00
2019-02-16T19:22:23.543Z,100.00
2019-02-16T19:25:19.604Z,100.00
2019-02-16T19:28:14.367Z,100.00
2019-02-16T19:30:58.180Z,100.00
2019-02-16T19:33:34.748Z,100.00
2019-02-16T19:36:36.743Z,100.00
2019-02-16T19:39:27.298Z,100.00
2019-02-16T19:42:12.532Z,100.00
2019-02-16T19:45:09.366Z,100.00
2019-02-16T19:47:54.694Z,100.00
2019-02-16T19:50:56.746Z,100.00
2019-02-16T19:53:39.792Z,100.00
2019-02-16T19:56:30.353Z,100.00
2019-02-16T19:59:23.151Z,100.00
2019-02-16T20:02:10.706Z,100.00
2019-02-16T20:05:00.236Z,100.00
2019-02-16T20:07:48.224Z,100.00
2019-02-16T20:10:50.360Z,100.00
2019-02-16T20:14:12.958Z,100.00
2019-02-16T20:20:30.195Z,100.00
2019-02-16T20:23:19.991Z,100.00
2019-02-16T20:26:09.468Z,100.00
2019-02-16T20:29:00.814Z,100.00
2019-02-16T20:31:39.908Z,100.00
2019-02-16T20:34:13.848Z,100.00
2019-02-16T20:36:55.313Z,100.00
2019-02-16T20:39:35.286Z,100.00
2019-02-16T20:42:28.026Z,100.00
2019-02-16T20:45:04.310Z,100.00
2019-02-16T20:47:41.038Z,100.00
2019-02-16T20:50:26.516Z,100.00
2019-02-16T20:56:03.793Z,100.00
2019-02-16T20:58:49.119Z,100.00
2019-02-16T21:01:34.080Z,100.00
2019-02-16T21:04:26.327Z,100.00
2019-02-16T21:07:11.859Z,100.00
2019-02-16T21:10:07.778Z,100.00
2019-02-16T21:12:57.406Z,100.00
2019-02-16T21:15:32.069Z,100.00
2019-02-16T21:18:27.764Z,100.00
2019-02-16T21:21:12.959Z,100.00
2019-02-16T21:23:58.776Z,100.00
2019-02-16T21:26:44.463Z,100.00
2019-02-16T21:29:37.250Z,100.00
2019-02-16T21:32:19.660Z,100.00
2019-02-16T21:34:54.752Z,100.00
2019-02-16T21:37:41.431Z,100.00
2019-02-16T21:40:30.743Z,100.00
2019-02-16T21:43:14.575Z,100.00
2019-02-16T21:46:09.499Z,100.00
2019-02-16T21:48:41.855Z,100.00
2019-02-16T21:51:25.901Z,100.00
2019-02-16T21:54:21.465Z,100.00
2019-02-16T21:56:59.202Z,100.00
2019-02-16T21:59:45.878Z,100.00
2019-02-16T22:02:41.615Z,100.00
2019-02-16T22:05:36.148Z,100.00
2019-02-16T22:08:21.838Z,100.00
2019-02-16T22:11:08.524Z,100.00
2019-02-16T22:13:35.587Z,100.00
2019-02-16T22:16:02.678Z,100.00
2019-02-16T22:18:29.822Z,100.00
2019-02-16T22:20:56.893Z,100.00
2019-02-16T22:23:23.951Z,100.00
2019-02-16T22:25:51.054Z,100.00
2019-02-16T22:28:29.960Z,100.00
2019-02-16T22:31:11.798Z,100.00
2019-02-16T22:33:39.033Z,100.00
2019-02-16T22:36:06.110Z,100.00
2019-02-16T22:38:33.242Z,100.00
2019-02-16T22:41:00.368Z,100.00
2019-02-16T22:43:27.548Z,100.00
2019-02-16T22:45:54.711Z,100.00
2019-02-16T22:48:25.418Z,100.00
2019-02-16T22:50:52.618Z,100.00
2019-02-16T22:53:19.693Z,100.00
2019-02-16T22:55:46.831Z,100.00
2019-02-16T22:58:13.995Z,100.00
2019-02-16T23:00:45.911Z,100.00
2019-02-16T23:03:13.339Z,100.00
2019-02-16T23:05:40.560Z,100.00
2019-02-16T23:08:07.769Z,100.00
2019-02-16T23:10:34.790Z,100.00
2019-02-16T23:13:02.055Z,100.00
2019-02-16T23:15:29.127Z,100.00
2019-02-16T23:17:56.269Z,100.00
2019-02-16T23:20:23.655Z,100.00
2019-02-16T23:22:50.727Z,100.00
2019-02-16T23:25:18.151Z,100.00
2019-02-16T23:28:24.417Z,100.00
2019-02-16T23:30:51.657Z,100.00
2019-02-16T23:33:18.764Z,100.00
2019-02-16T23:36:29.922Z,100.00
2019-02-16T23:38:57.076Z,100.00
2019-02-16T23:41:24.210Z,100.00
2019-02-16T23:44:03.562Z,100.00
2019-02-16T23:46:30.618Z,100.00
2019-02-16T23:48:57.837Z,100.00
2019-02-16T23:51:28.227Z,100.00
2019-02-16T23:53:56.511Z,100.00
2019-02-16T23:56:23.650Z,100.00
2019-02-16T23:58:50.765Z,100.00
